Time;durP1;ratioP1;P1;durP2;ratioP2;P2;SDS_P1;SDS_P2;PMS_P1;PMS_P2;Temp;Humidity;BMP_temperature;BMP_pressure;BME280_temperature;BME280_humidity;BME280_pressure;Samples;Min_cycle;Max_cycle;Signal;HPM_P1;HPM_P2
2020/12/23 00:00:55;;;;;;;15.10;14.40;;;13.90;86.20;;;;;;5034494;28;20482;-79
2020/12/23 00:03:21;;;;;;;14.40;13.80;;;13.90;86.10;;;;;;5033138;28;20456;-79
2020/12/23 00:05:48;;;;;;;14.53;13.93;;;13.90;86.00;;;;;;5032772;28;20493;-79
2020/12/23 00:08:14;;;;;;;13.93;13.33;;;13.90;86.00;;;;;;5049234;28;20451;-79
2020/12/23 00:10:40;;;;;;;14.17;13.57;;;13.80;86.10;;;;;;5052782;28;20524;-79
2020/12/23 00:13:08;;;;;;;14.70;14.00;;;13.90;86.00;;;;;;5052636;28;20902;-79
2020/12/23 00:15:34;;;;;;;14.57;13.97;;;13.90;86.30;;;;;;5052635;28;20479;-79
2020/12/23 00:18:00;;;;;;;14.13;13.40;;;13.90;86.10;;;;;;5052901;28;20479;-78
2020/12/23 00:20:27;;;;;;;13.80;13.20;;;13.90;86.00;;;;;;5052831;28;20542;-78
2020/12/23 00:22:53;;;;;;;13.60;13.00;;;14.00;85.80;;;;;;5052737;28;20451;-78
2020/12/23 00:25:19;;;;;;;14.20;13.60;;;14.00;85.70;;;;;;5034378;28;20448;-79
2020/12/23 00:27:46;;;;;;;13.43;12.83;;;14.10;85.50;;;;;;5032805;28;20456;-78
2020/12/23 00:30:13;;;;;;;13.33;12.83;;;14.10;85.40;;;;;;5032403;28;20455;-79
2020/12/23 00:32:39;;;;;;;14.00;13.40;;;14.20;85.20;;;;;;5032738;28;20875;-79
2020/12/23 00:35:06;;;;;;;13.50;12.90;;;14.20;85.10;;;;;;5016976;28;21036;-78
2020/12/23 00:37:32;;;;;;;14.20;13.60;;;14.20;84.70;;;;;;5032068;28;20531;-78
2020/12/23 00:39:58;;;;;;;14.10;13.30;;;14.20;84.80;;;;;;5039189;28;20494;-78
2020/12/23 00:42:25;;;;;;;14.70;14.10;;;14.30;84.70;;;;;;5055616;28;20453;-78
2020/12/23 00:44:51;;;;;;;14.57;13.97;;;14.30;84.60;;;;;;5055612;28;20463;-78
2020/12/23 00:47:18;;;;;;;13.60;13.10;;;14.30;84.40;;;;;;5052465;28;20471;-78
2020/12/23 00:49:45;;;;;;;14.30;13.60;;;14.40;84.40;;;;;;5042400;28;20458;-78
2020/12/23 00:52:11;;;;;;;14.47;13.87;;;14.30;84.40;;;;;;5033017;28;20456;-78
2020/12/23 00:54:37;;;;;;;14.53;13.90;;;14.40;84.20;;;;;;5050814;28;20520;-78
2020/12/23 00:57:04;;;;;;;14.53;13.93;;;14.40;84.30;;;;;;5053116;28;20467;-78
2020/12/23 00:59:30;;;;;;;15.03;14.43;;;14.40;84.00;;;;;;5056898;28;20542;-78
2020/12/23 01:01:57;;;;;;;14.40;13.80;;;14.40;84.00;;;;;;5054525;28;20451;-78
2020/12/23 01:04:24;;;;;;;14.90;14.30;;;14.40;84.00;;;;;;5048075;28;20463;-78
2020/12/23 01:06:51;;;;;;;15.10;14.30;;;14.40;84.00;;;;;;5043585;28;20521;-78
2020/12/23 01:09:17;;;;;;;15.20;14.30;;;14.50;83.70;;;;;;5032503;28;20529;-78
2020/12/23 01:11:44;;;;;;;15.13;14.43;;;14.40;84.00;;;;;;5032429;28;20456;-78
2020/12/23 01:14:10;;;;;;;15.20;14.60;;;14.40;84.10;;;;;;5034469;28;20814;-78
2020/12/23 01:16:36;;;;;;;16.10;15.30;;;14.40;84.00;;;;;;5031977;28;20484;-79
2020/12/23 01:19:03;;;;;;;15.63;14.93;;;14.50;83.70;;;;;;5032159;28;20913;-79
2020/12/23 01:21:30;;;;;;;15.63;15.03;;;14.40;83.50;;;;;;5037680;28;20453;-79
2020/12/23 01:23:57;;;;;;;15.40;14.70;;;14.50;83.30;;;;;;5052138;28;20473;-79
2020/12/23 01:26:23;;;;;;;15.47;14.80;;;14.50;83.30;;;;;;5051795;28;20471;-79
2020/12/23 01:28:49;;;;;;;16.17;15.37;;;14.60;83.00;;;;;;5052346;28;20455;-79
2020/12/23 01:31:16;;;;;;;16.47;15.77;;;14.60;82.90;;;;;;5048439;28;20475;-79
2020/12/23 01:33:42;;;;;;;16.37;15.67;;;14.60;83.00;;;;;;5032269;28;20547;-79
2020/12/23 01:36:09;;;;;;;15.67;14.97;;;14.60;82.80;;;;;;5034242;28;20473;-78
2020/12/23 01:38:36;;;;;;;15.90;15.20;;;14.50;82.80;;;;;;5036802;28;20486;-78
2020/12/23 01:41:04;;;;;;;16.47;15.30;;;14.60;82.80;;;;;;5033556;28;20593;-78
2020/12/23 01:43:31;;;;;;;16.20;15.50;;;14.60;82.70;;;;;;5053825;28;20543;-78
2020/12/23 01:45:58;;;;;;;15.97;15.27;;;14.50;82.80;;;;;;5055007;28;20546;-78
2020/12/23 01:48:28;;;;;;;16.23;15.53;;;14.50;82.60;;;;;;5055599;28;20455;-79
2020/12/23 01:50:57;;;;;;;15.83;15.13;;;14.60;82.50;;;;;;5055383;28;20831;-79
2020/12/23 01:53:24;;;;;;;16.40;15.70;;;14.60;82.40;;;;;;5016297;28;20568;-79
2020/12/23 01:55:52;;;;;;;16.80;16.10;;;14.60;82.70;;;;;;5015736;28;21016;-79
2020/12/23 01:58:18;;;;;;;16.57;15.87;;;14.60;82.70;;;;;;5015888;28;20456;-79
2020/12/23 02:00:45;;;;;;;17.03;16.23;;;14.60;82.60;;;;;;5035484;28;20455;-79
2020/12/23 02:03:13;;;;;;;17.40;16.50;;;14.60;82.60;;;;;;5035921;28;20456;-79
2020/12/23 02:05:41;;;;;;;16.73;16.03;;;14.60;82.40;;;;;;5035641;28;20476;-79
2020/12/23 02:08:07;;;;;;;16.07;15.37;;;14.70;82.40;;;;;;5040428;28;20593;-79
2020/12/23 02:10:34;;;;;;;16.23;15.53;;;14.70;82.10;;;;;;5053708;28;20451;-79
2020/12/23 02:13:01;;;;;;;16.33;15.63;;;14.70;82.10;;;;;;5046825;28;20951;-79
2020/12/23 02:15:28;;;;;;;16.83;16.13;;;14.70;81.90;;;;;;5034850;28;20476;-80
2020/12/23 02:17:54;;;;;;;16.80;16.10;;;14.90;81.40;;;;;;5035118;28;20933;-79
2020/12/23 02:20:21;;;;;;;17.80;16.80;;;14.90;81.20;;;;;;5035063;28;20461;-79
2020/12/23 02:22:48;;;;;;;16.80;16.10;;;14.90;81.30;;;;;;5035976;28;20456;-79
2020/12/23 02:25:15;;;;;;;16.50;15.80;;;14.90;81.10;;;;;;5035016;28;20448;-79
2020/12/23 02:27:43;;;;;;;16.57;15.87;;;15.00;80.70;;;;;;5034857;28;20495;-79
2020/12/23 02:30:11;;;;;;;17.40;16.60;;;15.00;80.60;;;;;;5035163;28;20453;-79
2020/12/23 02:32:37;;;;;;;16.80;16.10;;;15.00;80.70;;;;;;5034962;28;20456;-79
2020/12/23 02:35:05;;;;;;;17.30;16.50;;;15.00;80.50;;;;;;5042190;28;20448;-79
2020/12/23 02:37:32;;;;;;;17.17;16.47;;;15.00;80.40;;;;;;5054169;28;20452;-79
2020/12/23 02:39:59;;;;;;;17.53;16.83;;;15.10;80.40;;;;;;5054591;28;20934;-79
2020/12/23 02:42:25;;;;;;;17.00;16.30;;;15.00;80.40;;;;;;5054500;28;20542;-79
2020/12/23 02:44:55;;;;;;;17.20;16.50;;;15.00;80.30;;;;;;5054231;28;20489;-79
2020/12/23 02:47:22;;;;;;;17.33;16.53;;;15.10;80.20;;;;;;5041540;28;20530;-79
2020/12/23 02:49:48;;;;;;;17.83;17.03;;;15.10;80.10;;;;;;5034677;28;20945;-79
2020/12/23 02:52:14;;;;;;;18.00;17.10;;;15.10;80.30;;;;;;5034545;28;20458;-79
2020/12/23 02:54:41;;;;;;;17.50;16.60;;;15.10;80.40;;;;;;5034196;28;20453;-79
2020/12/23 02:57:08;;;;;;;17.30;16.60;;;15.10;80.20;;;;;;5043999;28;20533;-79
2020/12/23 02:59:35;;;;;;;16.90;16.20;;;15.10;79.70;;;;;;5054333;28;20518;-79
2020/12/23 03:02:02;;;;;;;17.30;16.40;;;15.10;79.80;;;;;;5054463;28;20925;-79
2020/12/23 03:04:28;;;;;;;17.20;16.40;;;15.10;79.80;;;;;;5054507;28;20485;-79
2020/12/23 03:06:55;;;;;;;17.20;16.50;;;15.10;79.90;;;;;;5045454;28;20996;-79
2020/12/23 03:09:21;;;;;;;17.70;16.80;;;15.10;79.80;;;;;;5048640;28;20458;-79
2020/12/23 03:11:47;;;;;;;17.43;16.73;;;15.20;79.30;;;;;;5034367;28;20452;-79
2020/12/23 03:14:15;;;;;;;18.77;17.70;;;15.20;79.50;;;;;;5034246;28;20506;-79
2020/12/23 03:16:41;;;;;;;17.80;17.00;;;15.10;79.60;;;;;;5039560;28;20537;-79
2020/12/23 03:19:08;;;;;;;18.00;17.10;;;15.20;79.40;;;;;;5053858;28;20912;-79
2020/12/23 03:21:34;;;;;;;18.00;17.20;;;15.30;79.10;;;;;;5053871;28;20817;-79
2020/12/23 03:24:01;;;;;;;19.60;18.70;;;15.30;78.90;;;;;;5041425;28;20486;-79
2020/12/23 03:26:27;;;;;;;18.40;17.60;;;15.30;78.70;;;;;;5033793;28;20556;-79
2020/12/23 03:28:54;;;;;;;18.20;17.40;;;15.40;78.50;;;;;;5043540;28;20448;-79
2020/12/23 03:31:21;;;;;;;17.73;16.83;;;15.30;78.50;;;;;;5056143;28;20451;-79
2020/12/23 03:33:47;;;;;;;17.13;16.40;;;15.30;78.70;;;;;;5060424;28;20451;-79
2020/12/23 03:36:14;;;;;;;18.00;17.10;;;15.30;78.60;;;;;;5047908;28;20616;-79
2020/12/23 03:38:40;;;;;;;17.60;16.80;;;15.30;78.40;;;;;;5053190;28;20832;-79
2020/12/23 03:41:07;;;;;;;17.77;16.97;;;15.30;78.50;;;;;;5053730;28;20913;-79
2020/12/23 03:43:33;;;;;;;18.83;17.87;;;15.30;78.40;;;;;;5049489;28;20448;-79
2020/12/23 03:45:59;;;;;;;17.43;16.63;;;15.30;78.40;;;;;;5033292;28;20511;-79
2020/12/23 03:48:27;;;;;;;18.10;17.30;;;15.20;79.10;;;;;;5037336;28;20516;-79
2020/12/23 03:50:53;;;;;;;17.87;16.97;;;15.10;78.80;;;;;;5040287;28;20885;-79
2020/12/23 03:53:20;;;;;;;18.47;17.57;;;15.10;78.70;;;;;;5036996;28;20459;-79
2020/12/23 03:55:46;;;;;;;18.67;17.67;;;15.20;78.30;;;;;;5033372;28;20492;-79
2020/12/23 03:58:12;;;;;;;18.30;17.30;;;15.20;78.30;;;;;;5033115;28;20460;-79
2020/12/23 04:00:39;;;;;;;18.10;17.30;;;15.20;78.40;;;;;;5033234;28;20547;-79
2020/12/23 04:03:05;;;;;;;18.03;17.23;;;15.20;78.40;;;;;;5033201;28;20449;-79
2020/12/23 04:05:32;;;;;;;18.00;17.20;;;15.20;78.30;;;;;;5050668;28;20459;-79
2020/12/23 04:07:59;;;;;;;18.10;17.30;;;15.30;78.10;;;;;;5053112;28;20552;-79
2020/12/23 04:10:25;;;;;;;18.80;17.90;;;15.20;78.30;;;;;;5052926;28;20809;-79
2020/12/23 04:12:52;;;;;;;19.70;18.80;;;15.20;78.60;;;;;;5052945;28;20447;-79
2020/12/23 04:15:18;;;;;;;19.37;18.17;;;15.20;79.70;;;;;;5043852;28;20472;-79
2020/12/23 04:17:44;;;;;;;19.60;18.60;;;15.20;79.60;;;;;;5052515;28;20443;-79
2020/12/23 04:20:11;;;;;;;19.87;18.97;;;15.20;79.00;;;;;;5052782;28;21011;-79
2020/12/23 04:22:38;;;;;;;19.50;18.60;;;15.10;79.00;;;;;;5052845;28;20462;-79
2020/12/23 04:25:06;;;;;;;19.87;18.87;;;15.20;79.10;;;;;;5037978;28;20449;-79
2020/12/23 04:27:32;;;;;;;18.90;18.00;;;15.20;78.70;;;;;;5032736;28;20455;-79
2020/12/23 04:29:59;;;;;;;19.60;18.70;;;15.20;78.50;;;;;;5032857;28;20591;-79
2020/12/23 04:32:25;;;;;;;20.70;19.70;;;15.30;78.10;;;;;;5032914;28;20854;-79
2020/12/23 04:34:52;;;;;;;19.50;18.60;;;15.20;78.40;;;;;;5032923;28;20463;-79
2020/12/23 04:37:18;;;;;;;19.00;18.10;;;15.20;78.50;;;;;;5048265;28;20477;-80
2020/12/23 04:39:46;;;;;;;18.33;17.43;;;15.10;78.80;;;;;;5052621;28;20462;-79
2020/12/23 04:42:12;;;;;;;20.20;19.20;;;15.20;78.80;;;;;;5052646;28;20455;-79
2020/12/23 04:44:39;;;;;;;18.40;17.50;;;15.20;79.40;;;;;;5052185;28;20839;-79
2020/12/23 04:47:08;;;;;;;18.67;17.80;;;15.20;79.90;;;;;;5037709;28;20992;-79
2020/12/23 04:49:36;;;;;;;18.00;17.20;;;15.20;80.50;;;;;;5032585;28;20460;-79
2020/12/23 04:52:06;;;;;;;18.20;16.93;;;15.20;80.80;;;;;;5032990;28;20456;-79
2020/12/23 04:54:32;;;;;;;17.80;17.00;;;15.00;81.20;;;;;;5032518;28;20838;-78
2020/12/23 04:57:00;;;;;;;18.53;17.63;;;14.90;81.80;;;;;;5045200;28;20475;-78
2020/12/23 04:59:27;;;;;;;18.70;17.80;;;14.90;81.70;;;;;;5052331;28;20443;-78
2020/12/23 05:01:57;;;;;;;18.50;17.60;;;15.00;81.50;;;;;;5052315;28;20988;-79
2020/12/23 05:04:25;;;;;;;17.83;17.00;;;14.90;81.80;;;;;;5052573;28;20466;-78
2020/12/23 05:07:01;;;;;;;18.07;17.27;;;14.90;81.80;;;;;;5040141;28;20460;-78
2020/12/23 05:09:28;;;;;;;18.67;17.87;;;14.90;82.00;;;;;;5032407;28;20816;-78
2020/12/23 05:11:55;;;;;;;17.57;16.77;;;14.80;82.10;;;;;;5032507;28;20896;-78
2020/12/23 05:14:23;;;;;;;18.90;18.00;;;14.80;82.10;;;;;;5032453;28;20467;-78
2020/12/23 05:16:50;;;;;;;18.60;17.80;;;14.70;82.20;;;;;;5044708;28;20482;-78
2020/12/23 05:19:18;;;;;;;17.70;16.90;;;14.70;82.10;;;;;;5043387;28;20449;-78
2020/12/23 05:21:45;;;;;;;17.73;16.93;;;14.70;81.90;;;;;;5037653;28;20461;-78
2020/12/23 05:24:12;;;;;;;19.20;18.30;;;14.80;82.30;;;;;;5036387;28;20456;-78
2020/12/23 05:26:41;;;;;;;18.80;17.90;;;14.70;82.20;;;;;;5049196;28;20980;-78
2020/12/23 05:29:08;;;;;;;18.13;17.23;;;14.70;82.20;;;;;;5059735;28;20451;-78
2020/12/23 05:31:36;;;;;;;18.50;17.60;;;14.70;82.20;;;;;;5056006;28;20447;-78
2020/12/23 05:34:04;;;;;;;18.90;18.07;;;14.70;82.10;;;;;;5055763;28;20457;-78
2020/12/23 05:36:32;;;;;;;17.90;17.10;;;14.70;82.20;;;;;;5055490;28;20486;-78
2020/12/23 05:38:59;;;;;;;18.37;17.47;;;14.70;82.30;;;;;;5043471;28;20464;-78
2020/12/23 05:41:26;;;;;;;17.50;16.70;;;14.70;81.90;;;;;;5035765;28;20483;-78
2020/12/23 05:43:53;;;;;;;19.13;18.27;;;14.70;81.90;;;;;;5035613;28;20451;-78
2020/12/23 05:46:20;;;;;;;19.23;18.33;;;14.70;81.90;;;;;;5035501;28;20567;-78
2020/12/23 05:48:47;;;;;;;18.83;17.93;;;14.60;81.90;;;;;;5035716;28;20494;-79
2020/12/23 05:51:13;;;;;;;19.30;18.40;;;14.70;82.10;;;;;;5048798;28;20452;-78
2020/12/23 05:53:40;;;;;;;18.47;17.60;;;14.70;81.90;;;;;;5055509;28;20447;-78
2020/12/23 05:56:08;;;;;;;18.50;17.60;;;14.60;81.90;;;;;;5055132;28;20518;-78
2020/12/23 05:58:36;;;;;;;18.77;17.90;;;14.60;81.90;;;;;;5055409;28;20455;-79
2020/12/23 06:01:05;;;;;;;17.87;17.07;;;14.70;81.90;;;;;;5043409;28;20501;-79
2020/12/23 06:03:52;;;;;;;18.30;17.40;;;14.70;81.60;;;;;;5036775;28;20454;-79
2020/12/23 06:06:24;;;;;;;17.93;17.13;;;14.60;82.10;;;;;;5048224;28;20992;-79
2020/12/23 06:08:53;;;;;;;17.20;16.50;;;14.60;81.90;;;;;;5055180;28;20470;-79
2020/12/23 06:11:35;;;;;;;18.77;17.87;;;14.60;81.90;;;;;;5041101;28;20463;-79
2020/12/23 06:14:15;;;;;;;18.80;17.90;;;14.50;81.90;;;;;;5035396;28;20461;-79
2020/12/23 06:16:45;;;;;;;18.70;17.73;;;14.60;81.80;;;;;;5035472;28;20850;-79
2020/12/23 06:19:17;;;;;;;18.47;17.57;;;14.60;81.70;;;;;;5035337;28;20889;-79
2020/12/23 06:21:45;;;;;;;17.30;16.50;;;14.50;81.80;;;;;;5042764;28;20475;-79
2020/12/23 06:24:13;;;;;;;16.80;16.10;;;14.50;81.90;;;;;;5035095;28;20452;-79
2020/12/23 06:26:41;;;;;;;18.03;17.23;;;14.50;81.90;;;;;;5034981;28;20480;-79
2020/12/23 06:29:09;;;;;;;17.00;16.30;;;14.40;82.10;;;;;;5034521;28;20453;-79
2020/12/23 06:31:41;;;;;;;18.10;17.30;;;14.50;82.10;;;;;;5050696;28;20451;-79
2020/12/23 06:34:12;;;;;;;18.10;17.30;;;14.50;82.00;;;;;;5054821;28;20461;-79
2020/12/23 06:36:39;;;;;;;17.87;16.87;;;14.40;82.00;;;;;;5045640;28;20480;-79
2020/12/23 06:39:27;;;;;;;17.80;16.60;;;14.40;82.10;;;;;;5053980;28;20464;-79
2020/12/23 06:41:55;;;;;;;17.97;17.07;;;14.50;82.10;;;;;;5053442;28;20829;-79
2020/12/23 06:44:22;;;;;;;17.50;16.70;;;14.40;82.20;;;;;;5053707;28;20459;-79
2020/12/23 06:47:08;;;;;;;17.60;16.80;;;14.40;82.20;;;;;;5055000;28;20463;-79
2020/12/23 06:49:36;;;;;;;17.50;16.70;;;14.40;82.20;;;;;;5057792;28;20456;-79
2020/12/23 06:52:35;;;;;;;16.30;15.60;;;14.40;82.10;;;;;;5041309;28;20540;-79
2020/12/23 06:55:03;;;;;;;17.70;16.87;;;14.40;82.10;;;;;;5044266;28;20456;-79
2020/12/23 06:57:55;;;;;;;17.00;16.20;;;14.40;81.70;;;;;;5043494;28;20502;-79
2020/12/23 07:00:35;;;;;;;17.70;16.80;;;14.40;81.60;;;;;;5042898;28;20539;-79
2020/12/23 07:03:04;;;;;;;17.40;16.60;;;14.40;81.20;;;;;;5040789;28;20455;-79
2020/12/23 07:05:45;;;;;;;17.60;16.80;;;14.30;81.40;;;;;;5037776;28;20506;-79
2020/12/23 07:08:16;;;;;;;17.90;17.10;;;14.40;81.20;;;;;;5038499;28;20865;-79
2020/12/23 07:10:46;;;;;;;18.27;17.37;;;14.40;81.00;;;;;;5048121;28;20478;-79
2020/12/23 07:13:14;;;;;;;17.93;17.03;;;14.40;81.10;;;;;;5057604;28;20594;-79
2020/12/23 07:15:43;;;;;;;19.03;18.10;;;14.40;81.30;;;;;;5058671;28;20968;-79
2020/12/23 07:18:10;;;;;;;18.10;17.30;;;14.30;81.20;;;;;;5060073;28;20534;-79
2020/12/23 07:20:40;;;;;;;18.00;17.10;;;14.40;81.00;;;;;;5050018;28;20455;-79
2020/12/23 07:23:09;;;;;;;18.50;17.60;;;14.50;80.40;;;;;;5043115;28;20524;-79
2020/12/23 07:25:42;;;;;;;18.67;17.50;;;14.50;80.10;;;;;;5041674;28;20468;-79
2020/12/23 07:28:10;;;;;;;18.33;17.53;;;14.40;80.30;;;;;;5037618;28;20454;-79
2020/12/23 07:30:39;;;;;;;18.77;17.87;;;14.50;80.10;;;;;;5045843;28;20479;-79
2020/12/23 07:33:12;;;;;;;19.90;18.90;;;14.50;80.30;;;;;;5055810;28;20509;-79
2020/12/23 07:35:39;;;;;;;18.40;17.57;;;14.50;80.20;;;;;;5053974;28;20479;-79
2020/12/23 07:38:07;;;;;;;18.93;18.03;;;14.50;80.00;;;;;;5053884;28;20490;-79
2020/12/23 07:40:35;;;;;;;19.27;18.37;;;14.50;79.90;;;;;;5044576;28;20934;-79
2020/12/23 07:43:03;;;;;;;17.63;16.83;;;14.50;79.80;;;;;;5035105;28;20475;-79
2020/12/23 07:45:30;;;;;;;18.90;18.00;;;14.50;79.60;;;;;;5034074;28;20559;-79
2020/12/23 07:47:59;;;;;;;18.50;17.60;;;14.60;79.50;;;;;;5034322;28;20463;-79
2020/12/23 07:50:28;;;;;;;21.00;19.70;;;14.60;79.10;;;;;;5040642;28;20451;-79
2020/12/23 07:52:54;;;;;;;18.77;17.87;;;14.60;79.00;;;;;;5053480;28;20453;-79
2020/12/23 07:55:22;;;;;;;19.70;18.70;;;14.60;79.10;;;;;;5053511;28;20542;-80
2020/12/23 07:57:50;;;;;;;19.93;18.60;;;14.60;79.00;;;;;;5054304;28;20933;-79
2020/12/23 08:00:18;;;;;;;19.83;18.50;;;14.60;79.00;;;;;;5053564;28;20462;-79
2020/12/23 08:02:45;;;;;;;20.10;18.90;;;14.70;78.60;;;;;;5048071;28;20466;-79
2020/12/23 08:05:12;;;;;;;18.83;17.93;;;14.70;78.30;;;;;;5053652;28;20459;-79
2020/12/23 08:07:43;;;;;;;19.10;18.10;;;14.70;78.40;;;;;;5053688;28;20452;-79
2020/12/23 08:10:12;;;;;;;20.83;19.00;;;14.80;78.20;;;;;;5053808;28;20455;-79
2020/12/23 08:12:39;;;;;;;20.33;19.23;;;14.80;78.00;;;;;;5053568;28;20516;-79
2020/12/23 08:15:10;;;;;;;21.90;19.80;;;14.80;78.00;;;;;;5045301;28;20506;-79
2020/12/23 08:17:37;;;;;;;26.70;21.20;;;14.90;77.80;;;;;;5033777;28;20480;-78
2020/12/23 08:20:09;;;;;;;20.30;18.90;;;15.00;77.40;;;;;;5033590;28;20813;-78
2020/12/23 08:22:37;;;;;;;70.10;24.83;;;14.90;77.40;;;;;;5033991;28;20954;-79
2020/12/23 08:25:08;;;;;;;47.23;21.77;;;15.00;77.20;;;;;;5041156;28;20502;-79
2020/12/23 08:27:36;;;;;;;28.97;20.67;;;14.90;77.20;;;;;;5053283;28;20970;-79
2020/12/23 08:30:05;;;;;;;116.53;27.97;;;14.90;77.50;;;;;;5053104;28;20506;-79
2020/12/23 08:32:36;;;;;;;44.60;22.60;;;15.00;77.20;;;;;;5053302;28;20463;-78
2020/12/23 08:35:04;;;;;;;56.13;24.50;;;15.00;76.80;;;;;;5046708;28;20454;-78
2020/12/23 08:37:34;;;;;;;20.77;19.17;;;15.10;76.70;;;;;;5032673;28;21055;-78
2020/12/23 08:40:01;;;;;;;42.07;21.33;;;15.10;76.80;;;;;;5033544;28;20486;-78
2020/12/23 08:42:27;;;;;;;24.40;20.00;;;15.20;76.20;;;;;;5033420;28;20470;-78
2020/12/23 08:44:55;;;;;;;38.67;23.10;;;15.30;76.00;;;;;;5038779;28;20455;-79
2020/12/23 08:47:27;;;;;;;22.00;20.20;;;15.30;75.80;;;;;;5053212;28;20471;-78
2020/12/23 08:49:55;;;;;;;25.40;20.10;;;15.40;75.80;;;;;;5053437;28;20456;-78
2020/12/23 08:52:23;;;;;;;21.23;19.83;;;15.40;75.70;;;;;;5053138;28;20513;-78
2020/12/23 08:54:50;;;;;;;26.63;21.70;;;15.50;75.60;;;;;;5057046;28;20940;-79
2020/12/23 08:57:25;;;;;;;25.30;21.90;;;15.50;75.60;;;;;;5057080;28;20563;-79
2020/12/23 08:59:53;;;;;;;21.30;20.07;;;15.50;75.30;;;;;;5057172;28;20455;-78
2020/12/23 09:02:19;;;;;;;21.17;20.07;;;15.60;74.70;;;;;;5050158;28;20455;-79
2020/12/23 09:04:46;;;;;;;20.90;19.90;;;15.60;74.70;;;;;;5037666;28;20447;-79
2020/12/23 09:07:20;;;;;;;21.40;20.30;;;15.70;74.50;;;;;;5037020;28;20830;-79
2020/12/23 09:09:47;;;;;;;21.27;20.07;;;15.60;74.80;;;;;;5038399;28;20463;-78
2020/12/23 09:12:31;;;;;;;22.50;21.30;;;15.60;75.00;;;;;;5038022;28;20902;-78
2020/12/23 09:14:59;;;;;;;23.23;21.93;;;15.60;74.70;;;;;;5037493;28;20456;-79
2020/12/23 09:17:25;;;;;;;21.30;20.30;;;15.70;74.50;;;;;;5043654;28;20471;-78
2020/12/23 09:19:54;;;;;;;22.10;21.10;;;15.80;74.30;;;;;;5059777;28;20466;-79
2020/12/23 09:22:28;;;;;;;21.07;19.87;;;15.80;74.20;;;;;;5049563;28;20451;-79
2020/12/23 09:25:17;;;;;;;21.77;20.43;;;15.80;74.00;;;;;;5039292;28;20850;-79
2020/12/23 09:27:45;;;;;;;21.30;19.97;;;15.80;74.00;;;;;;5054603;28;20457;-79
2020/12/23 09:30:12;;;;;;;21.37;20.17;;;15.80;73.80;;;;;;5056288;28;20457;-78
2020/12/23 09:32:53;;;;;;;23.37;21.80;;;15.80;74.10;;;;;;5056457;28;20451;-78
2020/12/23 09:35:23;;;;;;;22.70;20.83;;;15.80;74.20;;;;;;5036382;28;20466;-79
2020/12/23 09:37:50;;;;;;;21.43;20.33;;;15.80;74.00;;;;;;5035964;28;20810;-79
2020/12/23 09:40:18;;;;;;;22.00;20.70;;;15.80;74.30;;;;;;5037079;28;20463;-79
2020/12/23 09:42:44;;;;;;;22.40;20.87;;;15.80;74.40;;;;;;5051255;28;20993;-80
2020/12/23 09:45:11;;;;;;;23.00;21.50;;;15.80;74.60;;;;;;5036913;28;20455;-79
2020/12/23 09:47:42;;;;;;;24.43;22.90;;;15.90;74.90;;;;;;5036083;28;20450;-79
2020/12/23 09:50:08;;;;;;;21.93;20.60;;;15.90;75.20;;;;;;5052349;28;20497;-79
2020/12/23 09:52:35;;;;;;;22.63;21.20;;;15.90;74.70;;;;;;5055185;28;20936;-79
2020/12/23 09:55:01;;;;;;;22.30;21.10;;;15.90;74.80;;;;;;5055882;28;20462;-79
2020/12/23 09:57:28;;;;;;;22.70;21.03;;;16.00;74.80;;;;;;5055551;28;20479;-79
2020/12/23 09:59:55;;;;;;;22.50;21.30;;;16.00;74.70;;;;;;5040862;28;20449;-79
2020/12/23 10:02:21;;;;;;;23.07;21.57;;;16.00;74.80;;;;;;5035576;28;20868;-79
2020/12/23 10:04:47;;;;;;;23.83;21.87;;;16.00;74.80;;;;;;5039553;28;20973;-79
2020/12/23 10:07:14;;;;;;;22.53;21.37;;;16.00;74.70;;;;;;5042262;28;20476;-79
2020/12/23 10:09:40;;;;;;;22.50;21.30;;;16.00;74.90;;;;;;5043323;28;20469;-79
2020/12/23 10:12:06;;;;;;;21.73;20.40;;;16.00;74.90;;;;;;5055295;28;20456;-79
2020/12/23 10:14:33;;;;;;;22.23;20.73;;;16.00;74.60;;;;;;5055169;28;20462;-79
2020/12/23 10:17:00;;;;;;;22.57;21.37;;;16.00;74.90;;;;;;5054927;28;21011;-79
2020/12/23 10:19:26;;;;;;;22.43;21.23;;;16.00;74.80;;;;;;5053587;28;20452;-79
2020/12/23 10:21:52;;;;;;;22.87;21.50;;;16.00;74.70;;;;;;5054750;28;20448;-79
2020/12/23 10:24:19;;;;;;;27.40;23.67;;;16.00;74.50;;;;;;5054782;28;20937;-79
2020/12/23 10:26:50;;;;;;;23.97;22.13;;;16.10;74.20;;;;;;5054709;28;20848;-79
2020/12/23 10:29:17;;;;;;;38.37;23.60;;;16.20;73.50;;;;;;5050923;28;20460;-79
2020/12/23 10:31:44;;;;;;;23.07;21.37;;;16.20;73.40;;;;;;5034961;28;20483;-79
2020/12/23 10:34:10;;;;;;;22.20;21.00;;;16.40;72.90;;;;;;5035394;28;20514;-79
2020/12/23 10:36:37;;;;;;;23.83;21.80;;;16.40;72.70;;;;;;5034606;28;20477;-79
2020/12/23 10:39:03;;;;;;;22.80;20.73;;;16.50;72.50;;;;;;5034238;28;20465;-79
2020/12/23 10:41:30;;;;;;;22.50;21.00;;;16.60;72.40;;;;;;5039923;28;20455;-79
2020/12/23 10:43:56;;;;;;;23.30;21.90;;;16.60;72.60;;;;;;5054414;28;20860;-79
2020/12/23 10:46:22;;;;;;;22.37;21.27;;;16.60;72.50;;;;;;5054163;28;20789;-79
2020/12/23 10:48:50;;;;;;;23.00;21.80;;;16.60;72.30;;;;;;5054624;28;20969;-79
2020/12/23 10:51:16;;;;;;;22.50;21.10;;;16.60;72.50;;;;;;5054460;28;20797;-79
2020/12/23 10:53:42;;;;;;;23.43;21.80;;;16.70;72.20;;;;;;5049102;28;20455;-79
2020/12/23 10:56:09;;;;;;;23.30;21.57;;;16.70;72.20;;;;;;5034206;28;20491;-79
2020/12/23 10:58:36;;;;;;;22.20;21.00;;;16.80;72.10;;;;;;5034415;28;20544;-79
2020/12/23 11:01:04;;;;;;;23.23;21.37;;;16.90;71.90;;;;;;5034386;28;20462;-79
2020/12/23 11:03:31;;;;;;;22.63;21.40;;;16.80;72.30;;;;;;5051880;28;20483;-79
2020/12/23 11:05:58;;;;;;;22.10;20.90;;;16.80;72.20;;;;;;5053921;28;20478;-79
2020/12/23 11:08:24;;;;;;;22.03;20.73;;;16.80;72.60;;;;;;5054082;28;20459;-78
2020/12/23 11:10:51;;;;;;;22.20;21.00;;;16.90;72.50;;;;;;5054485;28;20506;-79
2020/12/23 11:13:17;;;;;;;22.40;21.30;;;16.90;72.40;;;;;;5046213;28;20516;-79
2020/12/23 11:15:44;;;;;;;23.73;22.60;;;17.00;72.20;;;;;;5034625;28;20468;-79
2020/12/23 11:18:10;;;;;;;22.70;21.50;;;17.00;72.10;;;;;;5034073;28;20444;-79
2020/12/23 11:20:36;;;;;;;22.93;21.70;;;16.90;72.50;;;;;;5034064;28;20861;-78
2020/12/23 11:23:04;;;;;;;22.87;21.60;;;16.90;72.90;;;;;;5033818;28;20763;-78
2020/12/23 11:25:30;;;;;;;22.53;21.43;;;16.90;73.10;;;;;;5049908;28;20471;-79
2020/12/23 11:27:57;;;;;;;22.00;20.90;;;16.90;72.60;;;;;;5053778;28;20813;-79
2020/12/23 11:30:24;;;;;;;22.03;20.93;;;16.90;72.70;;;;;;5052134;28;20448;-79
2020/12/23 11:32:50;;;;;;;22.60;21.40;;;16.80;73.10;;;;;;5055422;28;20478;-78
2020/12/23 11:35:17;;;;;;;24.90;23.50;;;16.70;73.20;;;;;;5053636;28;20509;-78
2020/12/23 11:37:43;;;;;;;22.87;21.67;;;16.70;73.40;;;;;;5053008;28;20475;-79
2020/12/23 11:40:10;;;;;;;21.97;20.80;;;16.60;73.70;;;;;;5042389;28;20520;-79
2020/12/23 11:42:41;;;;;;;21.97;20.87;;;16.60;73.20;;;;;;5014002;28;20457;-79
2020/12/23 11:45:08;;;;;;;22.00;20.90;;;16.60;73.60;;;;;;5037800;28;20968;-79
2020/12/23 11:47:35;;;;;;;22.80;21.60;;;16.60;73.10;;;;;;5042922;28;20506;-78
2020/12/23 11:50:01;;;;;;;21.83;20.73;;;16.60;73.60;;;;;;5053541;28;20600;-79
2020/12/23 11:52:27;;;;;;;22.43;21.33;;;16.50;73.90;;;;;;5053246;28;20461;-79
2020/12/23 11:54:54;;;;;;;21.23;20.20;;;16.50;73.40;;;;;;5043168;28;20856;-79
2020/12/23 11:57:21;;;;;;;21.40;20.40;;;16.60;72.90;;;;;;5033023;28;20579;-79
2020/12/23 11:59:48;;;;;;;21.90;20.80;;;16.40;73.30;;;;;;5051355;28;20458;-79
2020/12/23 12:02:14;;;;;;;21.90;20.80;;;16.40;73.60;;;;;;5053227;28;20451;-79
2020/12/23 12:04:41;;;;;;;22.83;21.63;;;16.40;73.60;;;;;;5039112;28;20461;-79
2020/12/23 12:07:08;;;;;;;21.50;20.50;;;16.40;73.50;;;;;;5042184;28;20474;-78
2020/12/23 12:09:35;;;;;;;22.70;21.30;;;16.50;73.00;;;;;;5053340;28;20463;-78
2020/12/23 12:12:03;;;;;;;22.10;20.90;;;16.50;73.10;;;;;;5053034;28;20502;-79
2020/12/23 12:14:30;;;;;;;21.93;20.73;;;16.50;73.20;;;;;;5051340;28;20450;-79
2020/12/23 12:16:56;;;;;;;22.40;21.20;;;16.50;72.70;;;;;;5045499;28;20487;-78
2020/12/23 12:19:23;;;;;;;22.20;21.00;;;16.50;72.60;;;;;;5032803;28;20456;-79
2020/12/23 12:21:49;;;;;;;21.40;20.40;;;16.50;72.80;;;;;;5032982;28;20462;-78
2020/12/23 12:24:15;;;;;;;21.83;20.73;;;16.50;72.80;;;;;;5033116;28;20444;-79
2020/12/23 12:26:42;;;;;;;22.40;21.20;;;16.50;72.40;;;;;;5031962;28;20472;-79
2020/12/23 12:29:08;;;;;;;22.30;21.10;;;16.60;72.30;;;;;;5032799;28;20961;-79